Time;durP1;ratioP1;P1;durP2;ratioP2;P2;SDS_P1;SDS_P2;PMS_P1;PMS_P2;Temp;Humidity;BMP_temperature;BMP_pressure;BME280_temperature;BME280_humidity;BME280_pressure;Samples;Min_cycle;Max_cycle;Signal;HPM_P1;HPM_P2
2023/03/29 00:01:48;;;;;;;5.47;2.58;;;6.70;99.90;;;;;;6308760;22;20018;-94
2023/03/29 00:04:18;;;;;;;6.47;2.78;;;6.70;99.90;;;;;;6308555;22;20386;-94
2023/03/29 00:06:49;;;;;;;7.35;2.30;;;6.70;99.90;;;;;;6280399;22;20011;-92
2023/03/29 00:09:17;;;;;;;6.15;2.30;;;6.70;99.90;;;;;;6280461;22;20019;-94
2023/03/29 00:11:43;;;;;;;5.13;2.28;;;6.70;99.90;;;;;;6281780;22;20027;-93
2023/03/29 00:14:09;;;;;;;4.15;2.50;;;6.70;99.90;;;;;;6307201;22;20482;-92
2023/03/29 00:16:35;;;;;;;4.88;2.25;;;6.70;99.90;;;;;;6281017;22;20094;-92
2023/03/29 00:19:01;;;;;;;5.75;2.63;;;6.70;99.90;;;;;;6308082;22;20050;-91
2023/03/29 00:21:27;;;;;;;7.95;2.70;;;6.70;99.90;;;;;;6307786;22;20015;-93
2023/03/29 00:23:52;;;;;;;6.95;2.60;;;6.70;99.90;;;;;;6308537;22;20017;-92
2023/03/29 00:26:18;;;;;;;6.13;2.28;;;6.70;99.90;;;;;;6308014;22;20323;-93
2023/03/29 00:28:44;;;;;;;7.10;2.47;;;6.70;99.90;;;;;;6308336;22;20011;-93
2023/03/29 00:31:13;;;;;;;5.60;2.38;;;6.70;99.90;;;;;;6280677;22;20015;-93
2023/03/29 00:33:40;;;;;;;9.13;2.08;;;6.70;99.90;;;;;;6281224;22;20476;-94
2023/03/29 00:36:07;;;;;;;8.90;2.22;;;6.70;99.90;;;;;;6280169;22;20026;-93
2023/03/29 00:38:33;;;;;;;6.13;2.45;;;6.60;99.90;;;;;;6307511;22;20439;-93
2023/03/29 00:40:59;;;;;;;4.68;2.17;;;6.60;99.90;;;;;;6308229;22;20026;-92
2023/03/29 00:43:25;;;;;;;5.38;2.20;;;6.60;99.90;;;;;;6279953;22;20082;-92
2023/03/29 00:45:51;;;;;;;6.32;2.38;;;6.60;99.90;;;;;;6280676;22;20046;-94
2023/03/29 00:48:22;;;;;;;7.65;2.35;;;6.60;99.90;;;;;;6280524;22;20038;-92
2023/03/29 00:51:00;;;;;;;6.95;2.53;;;6.60;99.90;;;;;;6308729;22;20022;-94
2023/03/29 00:53:33;;;;;;;6.07;2.50;;;6.50;99.90;;;;;;6308395;22;20011;-95
2023/03/29 00:56:10;;;;;;;7.20;2.40;;;6.50;99.90;;;;;;6307962;22;20011;-93
2023/03/29 00:59:05;;;;;;;5.30;2.28;;;6.50;99.90;;;;;;6308464;22;20011;-95
2023/03/29 01:01:53;;;;;;;6.45;2.63;;;6.60;99.90;;;;;;6307650;22;20474;-92
2023/03/29 01:04:22;;;;;;;4.60;2.13;;;6.50;99.90;;;;;;6280200;22;20018;-94
2023/03/29 01:06:55;;;;;;;5.45;2.55;;;6.50;99.90;;;;;;6308218;22;20042;-92
2023/03/29 01:09:25;;;;;;;6.85;2.75;;;6.50;99.90;;;;;;6279951;22;20391;-92
2023/03/29 01:11:54;;;;;;;5.20;2.30;;;6.50;99.90;;;;;;6281190;22;20023;-93
2023/03/29 01:14:37;;;;;;;5.90;2.40;;;6.50;99.90;;;;;;6280832;22;20015;-94
2023/03/29 01:17:03;;;;;;;5.63;2.53;;;6.50;99.90;;;;;;6308448;22;20063;-93
2023/03/29 01:19:46;;;;;;;4.90;2.58;;;6.50;99.90;;;;;;6280623;22;20015;-93
2023/03/29 01:22:12;;;;;;;5.53;2.63;;;6.50;99.90;;;;;;6308385;22;20011;-94
2023/03/29 01:25:00;;;;;;;5.32;2.50;;;6.50;99.90;;;;;;6280630;22;20050;-94
2023/03/29 01:27:32;;;;;;;6.15;2.50;;;6.50;99.90;;;;;;6280810;22;20023;-93
2023/03/29 01:30:03;;;;;;;6.15;2.60;;;6.50;99.90;;;;;;6281326;22;20098;-93
2023/03/29 01:32:55;;;;;;;5.50;2.97;;;6.50;99.90;;;;;;6282081;22;20015;-95
2023/03/29 01:35:31;;;;;;;6.13;2.75;;;6.50;99.90;;;;;;6282402;22;20011;-92
2023/03/29 01:38:17;;;;;;;6.60;2.75;;;6.50;99.90;;;;;;6282731;22;20015;-93
2023/03/29 01:40:43;;;;;;;6.63;3.15;;;6.40;99.90;;;;;;6282623;22;20019;-94
2023/03/29 01:43:43;;;;;;;6.78;2.88;;;6.40;99.90;;;;;;6310033;22;20014;-93
2023/03/29 01:46:24;;;;;;;5.85;2.90;;;6.40;99.90;;;;;;6281709;22;20394;-93
2023/03/29 01:49:03;;;;;;;5.78;2.80;;;6.40;99.90;;;;;;6309993;22;20051;-93
2023/03/29 01:51:39;;;;;;;7.88;2.95;;;6.40;99.90;;;;;;6281807;22;20019;-92
2023/03/29 01:54:14;;;;;;;8.10;3.58;;;6.40;99.90;;;;;;6309892;22;20007;-93
2023/03/29 01:56:42;;;;;;;5.30;2.50;;;6.40;99.90;;;;;;6282348;22;20027;-93
2023/03/29 01:59:16;;;;;;;7.60;3.22;;;6.40;99.90;;;;;;6309246;22;20373;-94
2023/03/29 02:01:47;;;;;;;6.38;2.97;;;6.40;99.90;;;;;;6310011;22;20023;-92
2023/03/29 02:04:23;;;;;;;6.45;3.22;;;6.40;99.90;;;;;;6282270;22;20451;-92
2023/03/29 02:06:53;;;;;;;7.63;3.75;;;6.40;99.90;;;;;;6309045;22;20440;-93
2023/03/29 02:09:19;;;;;;;5.65;3.00;;;6.40;99.90;;;;;;6282506;22;20022;-93
2023/03/29 02:11:46;;;;;;;6.80;3.25;;;6.40;99.90;;;;;;6310167;22;20019;-91
2023/03/29 02:14:14;;;;;;;7.57;3.20;;;6.40;99.90;;;;;;6309101;22;20042;-94
2023/03/29 02:16:40;;;;;;;7.53;3.17;;;6.40;99.90;;;;;;6281194;22;20027;-93
2023/03/29 02:19:07;;;;;;;6.15;3.47;;;6.40;99.90;;;;;;6309464;22;20297;-94
2023/03/29 02:22:02;;;;;;;7.53;3.40;;;6.40;99.90;;;;;;6281308;22;20012;-93
2023/03/29 02:24:31;;;;;;;7.07;3.35;;;6.40;99.90;;;;;;6279680;22;20019;-94
2023/03/29 02:26:57;;;;;;;7.10;3.33;;;6.40;99.90;;;;;;6282084;22;20343;-94
2023/03/29 02:29:25;;;;;;;7.47;3.42;;;6.40;99.90;;;;;;6282177;22;20015;-94
2023/03/29 02:32:04;;;;;;;8.15;3.47;;;6.40;99.90;;;;;;6282118;22;20015;-93
2023/03/29 02:34:36;;;;;;;6.28;3.60;;;6.40;99.90;;;;;;6281907;22;20072;-94
2023/03/29 02:37:14;;;;;;;7.95;3.95;;;6.40;99.90;;;;;;6282664;22;20016;-93
2023/03/29 02:39:40;;;;;;;8.15;3.20;;;6.40;99.90;;;;;;6282168;22;20347;-93
2023/03/29 02:42:07;;;;;;;7.40;3.40;;;6.30;99.90;;;;;;6281567;22;20343;-93
2023/03/29 02:44:38;;;;;;;8.55;3.92;;;6.30;99.90;;;;;;6309409;22;20022;-93
2023/03/29 02:47:15;;;;;;;6.30;3.28;;;6.30;99.90;;;;;;6281899;22;20092;-94
2023/03/29 02:49:41;;;;;;;6.57;3.22;;;6.40;99.90;;;;;;6308890;22;20007;-94
2023/03/29 02:52:15;;;;;;;8.55;3.80;;;6.30;99.90;;;;;;6282114;22;20089;-93
2023/03/29 02:54:44;;;;;;;9.32;3.58;;;6.40;99.90;;;;;;6310317;22;20019;-95
2023/03/29 02:57:11;;;;;;;8.38;4.00;;;6.40;99.90;;;;;;6281619;22;20395;-94
2023/03/29 02:59:37;;;;;;;8.55;4.03;;;6.30;99.90;;;;;;6281430;22;20023;-92
2023/03/29 03:02:04;;;;;;;7.10;3.63;;;6.40;99.90;;;;;;6309383;22;20510;-94
2023/03/29 03:04:30;;;;;;;8.32;3.67;;;6.40;99.90;;;;;;6309178;22;20026;-94
2023/03/29 03:06:56;;;;;;;6.68;3.63;;;6.40;99.90;;;;;;6309021;22;20439;-93
2023/03/29 03:09:23;;;;;;;8.20;3.63;;;6.40;99.90;;;;;;6308756;22;20058;-93
2023/03/29 03:11:48;;;;;;;9.30;4.03;;;6.40;99.90;;;;;;6309688;22;20030;-94
2023/03/29 03:14:15;;;;;;;9.68;3.97;;;6.40;99.90;;;;;;6281282;22;20016;-93
2023/03/29 03:16:41;;;;;;;7.63;4.07;;;6.40;99.90;;;;;;6308912;22;20339;-94
2023/03/29 03:19:06;;;;;;;9.05;4.13;;;6.40;99.90;;;;;;6281784;22;20021;-94
2023/03/29 03:21:33;;;;;;;7.65;4.35;;;6.40;99.90;;;;;;6281112;22;20106;-94
2023/03/29 03:23:59;;;;;;;6.95;3.72;;;6.40;99.90;;;;;;6281141;22;20069;-94
2023/03/29 03:26:28;;;;;;;7.60;4.32;;;6.40;99.90;;;;;;6281184;22;20020;-93
2023/03/29 03:28:55;;;;;;;8.27;4.20;;;6.40;99.90;;;;;;6281746;22;20015;-94
2023/03/29 03:31:20;;;;;;;7.85;3.53;;;6.40;99.90;;;;;;6307973;22;20015;-92
2023/03/29 03:33:46;;;;;;;6.70;3.85;;;6.40;99.90;;;;;;6281840;22;20007;-92
2023/03/29 03:36:11;;;;;;;7.70;4.55;;;6.40;99.90;;;;;;6281298;22;20080;-93
2023/03/29 03:38:38;;;;;;;8.57;4.53;;;6.40;99.90;;;;;;6308707;22;20007;-93
2023/03/29 03:41:05;;;;;;;7.43;4.30;;;6.40;99.90;;;;;;6281324;22;20094;-93
2023/03/29 03:43:31;;;;;;;7.93;4.70;;;6.40;99.90;;;;;;6281102;22;20431;-92
2023/03/29 03:45:57;;;;;;;7.78;4.43;;;6.40;99.90;;;;;;6308325;22;20033;-93
2023/03/29 03:48:23;;;;;;;11.93;5.38;;;6.40;99.90;;;;;;6281732;22;20038;-92
2023/03/29 03:50:57;;;;;;;9.35;4.82;;;6.40;99.90;;;;;;6281575;22;20339;-94
2023/03/29 03:53:23;;;;;;;10.05;5.65;;;6.40;99.90;;;;;;6281013;22;20030;-94
2023/03/29 03:55:50;;;;;;;8.63;4.60;;;6.40;99.90;;;;;;6282148;22;20094;-93
2023/03/29 03:58:16;;;;;;;10.68;4.72;;;6.40;99.90;;;;;;6308007;22;20015;-92
2023/03/29 04:00:43;;;;;;;8.20;4.70;;;6.40;99.90;;;;;;6308452;22;20011;-93
2023/03/29 04:03:09;;;;;;;9.70;4.78;;;6.40;99.90;;;;;;6281569;22;20513;-93
2023/03/29 04:05:39;;;;;;;11.45;4.95;;;6.30;99.90;;;;;;6307281;22;20034;-92
2023/03/29 04:08:06;;;;;;;10.80;5.20;;;6.30;99.90;;;;;;6281878;22;20015;-93
2023/03/29 04:10:33;;;;;;;10.57;4.85;;;6.30;99.90;;;;;;6308850;22;20341;-95
2023/03/29 04:13:03;;;;;;;10.20;5.22;;;6.30;99.90;;;;;;6308364;22;20022;-95
2023/03/29 04:15:33;;;;;;;8.32;4.55;;;6.40;99.90;;;;;;6309012;22;20015;-96
2023/03/29 04:17:59;;;;;;;9.63;4.65;;;6.30;99.90;;;;;;6309649;22;20041;-91
2023/03/29 04:20:25;;;;;;;12.30;5.38;;;6.30;99.90;;;;;;6280262;22;20023;-91
2023/03/29 04:22:52;;;;;;;9.57;5.22;;;6.30;99.90;;;;;;6284114;22;20015;-95
2023/03/29 04:25:20;;;;;;;10.82;5.10;;;6.30;99.90;;;;;;6311016;22;20466;-96
2023/03/29 04:27:45;;;;;;;10.77;5.43;;;6.30;99.90;;;;;;6283408;22;20015;-96
2023/03/29 04:30:12;;;;;;;9.90;5.00;;;6.40;99.90;;;;;;6310215;22;20429;-94
2023/03/29 04:32:37;;;;;;;11.15;5.22;;;6.30;99.90;;;;;;6281251;22;20321;-89
2023/03/29 04:35:04;;;;;;;11.65;5.38;;;6.30;99.90;;;;;;6279523;22;20022;-88
2023/03/29 04:37:30;;;;;;;10.15;5.13;;;6.30;99.90;;;;;;6280474;22;20025;-92
2023/03/29 04:39:59;;;;;;;9.18;5.22;;;6.40;99.90;;;;;;6280344;22;20012;-89
2023/03/29 04:42:25;;;;;;;9.95;5.47;;;6.30;99.90;;;;;;6279289;22;20015;-91
2023/03/29 04:44:52;;;;;;;8.00;5.20;;;6.30;99.90;;;;;;6308609;22;20012;-89
2023/03/29 04:47:18;;;;;;;12.15;5.60;;;6.40;99.90;;;;;;6307769;22;20011;-91
2023/03/29 04:49:44;;;;;;;12.73;5.75;;;6.40;99.90;;;;;;6308267;22;20012;-93
2023/03/29 04:52:10;;;;;;;9.82;5.95;;;6.40;99.90;;;;;;6280697;22;20016;-93
2023/03/29 04:54:36;;;;;;;12.85;5.72;;;6.40;99.90;;;;;;6280264;22;20012;-92
2023/03/29 04:57:04;;;;;;;10.45;5.60;;;6.40;99.90;;;;;;6280623;22;20020;-90
2023/03/29 04:59:31;;;;;;;11.57;5.28;;;6.40;99.90;;;;;;6307930;22;20499;-91
2023/03/29 05:01:57;;;;;;;8.63;5.30;;;6.40;99.90;;;;;;6280304;22;20353;-90
2023/03/29 05:04:23;;;;;;;9.45;5.18;;;6.40;99.90;;;;;;6308946;22;20015;-88
2023/03/29 05:06:49;;;;;;;10.70;5.95;;;6.40;99.90;;;;;;6282813;22;20019;-88
2023/03/29 05:09:15;;;;;;;11.05;6.10;;;6.30;99.90;;;;;;6281421;22;20094;-89
2023/03/29 05:11:41;;;;;;;11.27;5.50;;;6.40;99.90;;;;;;6283169;22;20065;-90
2023/03/29 05:14:08;;;;;;;9.38;5.90;;;6.40;99.90;;;;;;6282580;22;20012;-89
2023/03/29 05:16:34;;;;;;;9.73;5.75;;;6.40;99.90;;;;;;6281801;22;20110;-89
2023/03/29 05:19:00;;;;;;;9.07;5.60;;;6.40;99.90;;;;;;6282685;22;20054;-88
2023/03/29 05:21:27;;;;;;;10.77;5.68;;;6.40;99.90;;;;;;6309967;22;20045;-89
2023/03/29 05:23:53;;;;;;;9.68;5.85;;;6.40;99.90;;;;;;6309235;22;20015;-89
2023/03/29 05:26:22;;;;;;;13.30;6.38;;;6.40;99.90;;;;;;6309682;22;20019;-87
2023/03/29 05:28:49;;;;;;;9.45;5.80;;;6.40;99.90;;;;;;6282429;22;20018;-88
2023/03/29 05:31:15;;;;;;;11.40;5.88;;;6.40;99.90;;;;;;6281800;22;20102;-89
2023/03/29 05:33:41;;;;;;;9.85;5.93;;;6.40;99.90;;;;;;6282604;22;20012;-88
2023/03/29 05:36:12;;;;;;;12.68;6.60;;;6.40;99.90;;;;;;6282569;22;20019;-88
2023/03/29 05:38:38;;;;;;;10.30;6.15;;;6.40;99.90;;;;;;6281563;22;20011;-89
2023/03/29 05:41:05;;;;;;;10.95;6.70;;;6.40;99.90;;;;;;6310196;22;20324;-89
2023/03/29 05:43:31;;;;;;;11.85;6.80;;;6.40;99.90;;;;;;6282069;22;20011;-89
2023/03/29 05:45:57;;;;;;;13.05;6.82;;;6.40;99.90;;;;;;6308913;22;20015;-89
2023/03/29 05:48:23;;;;;;;9.63;6.13;;;6.40;99.90;;;;;;6282111;22;20019;-88
2023/03/29 05:50:52;;;;;;;11.32;6.90;;;6.40;99.90;;;;;;6309207;22;20015;-90
2023/03/29 05:53:19;;;;;;;10.52;5.82;;;6.40;99.90;;;;;;6282104;22;20447;-90
2023/03/29 05:55:46;;;;;;;12.52;6.38;;;6.40;99.90;;;;;;6282456;22;20012;-89
2023/03/29 05:58:12;;;;;;;12.88;6.72;;;6.40;99.90;;;;;;6308645;22;20047;-88
2023/03/29 06:00:39;;;;;;;11.43;6.50;;;6.40;99.90;;;;;;6281925;22;20017;-89
2023/03/29 06:03:06;;;;;;;17.52;6.82;;;6.40;99.90;;;;;;6282053;22;20053;-90
2023/03/29 06:05:35;;;;;;;11.88;6.72;;;6.40;99.90;;;;;;6307882;22;20316;-91
2023/03/29 06:08:01;;;;;;;12.68;7.10;;;6.40;99.90;;;;;;6282096;22;20019;-91
2023/03/29 06:10:27;;;;;;;13.70;6.75;;;6.40;99.90;;;;;;6309428;22;20018;-93
2023/03/29 06:12:54;;;;;;;11.93;6.78;;;6.40;99.90;;;;;;6282271;22;20094;-91
2023/03/29 06:15:20;;;;;;;11.07;6.47;;;6.40;99.90;;;;;;6281770;22;20012;-91
2023/03/29 06:17:46;;;;;;;13.10;6.88;;;6.40;99.90;;;;;;6282870;22;20015;-92
2023/03/29 06:20:13;;;;;;;11.57;6.65;;;6.40;99.90;;;;;;6284223;22;20026;-94
2023/03/29 06:22:40;;;;;;;10.30;6.93;;;6.40;99.90;;;;;;6284791;22;20064;-94
2023/03/29 06:25:08;;;;;;;11.77;6.75;;;6.40;99.90;;;;;;6285675;22;20027;-94
2023/03/29 06:27:33;;;;;;;12.88;6.95;;;6.40;99.90;;;;;;6287227;22;20072;-93
2023/03/29 06:29:59;;;;;;;12.88;7.47;;;6.40;99.90;;;;;;6283380;22;20047;-91
2023/03/29 06:32:26;;;;;;;13.55;7.03;;;6.40;99.90;;;;;;6282894;22;20054;-93
2023/03/29 06:34:53;;;;;;;12.20;6.68;;;6.40;99.90;;;;;;6283920;22;20023;-94
2023/03/29 06:37:18;;;;;;;15.73;7.57;;;6.40;99.90;;;;;;6310344;22;20439;-92
2023/03/29 06:39:44;;;;;;;11.82;7.30;;;6.40;99.90;;;;;;6283527;22;20016;-94
2023/03/29 06:42:10;;;;;;;10.90;7.00;;;6.40;99.90;;;;;;6283594;22;20022;-94
2023/03/29 06:44:36;;;;;;;13.60;7.10;;;6.40;99.90;;;;;;6284219;22;20332;-93
2023/03/29 06:47:03;;;;;;;12.25;7.15;;;6.50;99.90;;;;;;6283783;22;20023;-94
2023/03/29 06:49:28;;;;;;;13.25;7.40;;;6.50;99.90;;;;;;6283588;22;20015;-95
2023/03/29 06:51:55;;;;;;;12.35;7.38;;;6.50;99.90;;;;;;6311781;22;20022;-94
2023/03/29 06:54:21;;;;;;;11.65;7.40;;;6.50;99.90;;;;;;6284655;22;20014;-94
2023/03/29 06:56:47;;;;;;;11.25;7.07;;;6.50;99.90;;;;;;6312291;22;20015;-95
2023/03/29 06:59:13;;;;;;;12.57;7.22;;;6.50;99.90;;;;;;6286821;22;20007;-95
2023/03/29 07:01:39;;;;;;;10.45;6.82;;;6.50;99.90;;;;;;6313951;22;20019;-93
2023/03/29 07:04:07;;;;;;;11.75;6.57;;;6.50;99.90;;;;;;6284081;22;20019;-96
2023/03/29 07:06:35;;;;;;;12.23;6.93;;;6.50;99.90;;;;;;6310994;22;20022;-96
2023/03/29 07:09:01;;;;;;;14.70;7.03;;;6.50;99.90;;;;;;6282960;22;20019;-93
2023/03/29 07:11:27;;;;;;;12.93;7.60;;;6.60;99.90;;;;;;6310066;22;20458;-96
2023/03/29 07:13:54;;;;;;;13.50;7.00;;;6.60;99.90;;;;;;6260518;22;20094;-95
2023/03/29 07:16:20;;;;;;;9.77;6.40;;;6.60;99.90;;;;;;6283135;22;20011;-92
2023/03/29 07:18:46;;;;;;;14.00;7.40;;;6.60;99.90;;;;;;6309575;22;20015;-91
2023/03/29 07:21:12;;;;;;;11.25;7.13;;;6.60;99.90;;;;;;6281574;22;20011;-92
2023/03/29 07:23:38;;;;;;;11.40;6.55;;;6.70;99.90;;;;;;6281609;22;20026;-92
2023/03/29 07:26:09;;;;;;;13.77;7.32;;;6.70;99.90;;;;;;6282045;22;20015;-92
2023/03/29 07:28:38;;;;;;;10.77;7.40;;;6.70;99.90;;;;;;6281394;22;20339;-93
2023/03/29 07:31:09;;;;;;;10.63;6.95;;;6.70;99.90;;;;;;6281557;22;20042;-91
2023/03/29 07:33:36;;;;;;;13.07;7.32;;;6.70;99.90;;;;;;6281854;22;20015;-92
2023/03/29 07:36:03;;;;;;;12.35;7.10;;;6.80;99.90;;;;;;6281872;22;20019;-91
2023/03/29 07:38:30;;;;;;;12.32;6.70;;;6.80;99.90;;;;;;6280930;22;20007;-94
2023/03/29 07:40:56;;;;;;;13.43;7.13;;;6.80;99.90;;;;;;6282178;22;20451;-90
2023/03/29 07:43:22;;;;;;;10.77;6.50;;;6.80;99.90;;;;;;6281263;22;20057;-91
2023/03/29 07:45:49;;;;;;;14.18;7.20;;;6.80;99.90;;;;;;6309313;22;20385;-91
2023/03/29 07:48:16;;;;;;;11.77;6.97;;;6.90;99.90;;;;;;6309234;22;20064;-93
2023/03/29 07:50:43;;;;;;;10.95;6.25;;;6.90;99.90;;;;;;6280486;22;20503;-91
2023/03/29 07:53:09;;;;;;;8.93;6.22;;;6.90;99.90;;;;;;6309168;22;20007;-92
2023/03/29 07:55:34;;;;;;;12.35;6.68;;;6.90;99.90;;;;;;6309015;22;20011;-91
2023/03/29 07:58:00;;;;;;;9.15;6.25;;;7.00;99.90;;;;;;6307586;22;20451;-92
2023/03/29 08:00:26;;;;;;;12.38;7.13;;;7.00;99.90;;;;;;6306656;22;20335;-91
2023/03/29 08:02:52;;;;;;;10.60;6.07;;;7.00;99.90;;;;;;6279060;22;20023;-93
2023/03/29 08:05:21;;;;;;;10.18;6.25;;;7.00;99.90;;;;;;6291154;22;20015;-95
2023/03/29 08:07:47;;;;;;;10.75;6.20;;;7.00;99.90;;;;;;6279457;22;20062;-93
2023/03/29 08:10:18;;;;;;;14.43;6.78;;;7.00;99.90;;;;;;6309930;22;20086;-93
2023/03/29 08:12:46;;;;;;;12.18;6.72;;;7.10;99.90;;;;;;6310234;22;20019;-95
2023/03/29 08:15:12;;;;;;;10.43;6.43;;;7.10;99.90;;;;;;6308937;22;20501;-94
2023/03/29 08:17:39;;;;;;;15.63;6.63;;;7.10;99.90;;;;;;6279747;22;20068;-95
2023/03/29 08:20:08;;;;;;;9.82;6.30;;;7.10;99.90;;;;;;6306033;22;20027;-94
2023/03/29 08:22:34;;;;;;;12.63;7.03;;;7.20;99.90;;;;;;6278802;22;20016;-95
2023/03/29 08:25:01;;;;;;;11.05;6.63;;;7.20;99.90;;;;;;6306408;22;20019;-93
2023/03/29 08:27:27;;;;;;;12.48;6.85;;;7.20;99.90;;;;;;6306438;22;20015;-90
2023/03/29 08:29:53;;;;;;;10.93;6.30;;;7.20;99.90;;;;;;6277857;22;20038;-92
2023/03/29 08:32:19;;;;;;;11.88;6.20;;;7.30;99.90;;;;;;6305290;22;20431;-91
2023/03/29 08:34:45;;;;;;;11.68;6.57;;;7.30;99.90;;;;;;6277579;22;20016;-93
2023/03/29 08:37:11;;;;;;;12.25;6.65;;;7.30;99.90;;;;;;6304849;22;20030;-93
2023/03/29 08:39:37;;;;;;;9.77;6.13;;;7.40;99.90;;;;;;6278172;22;20101;-91
2023/03/29 08:42:25;;;;;;;10.82;6.65;;;7.40;99.90;;;;;;6281682;22;20030;-92
2023/03/29 08:44:58;;;;;;;11.35;6.25;;;7.40;99.90;;;;;;6280439;22;20018;-92
2023/03/29 08:47:30;;;;;;;14.02;6.35;;;7.50;99.90;;;;;;6279658;22;20323;-91
2023/03/29 08:49:56;;;;;;;11.90;6.65;;;7.60;99.90;;;;;;6281303;22;20019;-92
2023/03/29 08:52:41;;;;;;;11.70;6.40;;;7.60;99.90;;;;;;6280347;22;20502;-94
2023/03/29 08:55:30;;;;;;;13.15;7.00;;;7.70;99.90;;;;;;6282137;22;20008;-94
2023/03/29 08:57:59;;;;;;;10.50;6.07;;;7.70;99.90;;;;;;6283231;22;20019;-91
2023/03/29 09:00:41;;;;;;;11.00;6.45;;;7.70;99.90;;;;;;6307189;22;20487;-93
2023/03/29 09:03:21;;;;;;;11.45;6.53;;;7.80;99.90;;;;;;6281473;22;20022;-91
2023/03/29 09:05:50;;;;;;;11.27;6.40;;;7.80;99.90;;;;;;6308684;22;20012;-92
2023/03/29 09:08:18;;;;;;;12.02;6.65;;;7.90;99.90;;;;;;6279051;22;20103;-90
2023/03/29 09:11:06;;;;;;;10.55;6.15;;;7.90;99.90;;;;;;6279313;22;20015;-91
2023/03/29 09:13:36;;;;;;;10.98;6.05;;;8.00;99.90;;;;;;6218809;22;20019;-93
2023/03/29 09:16:16;;;;;;;14.93;6.88;;;8.10;99.90;;;;;;6278987;22;20015;-90
2023/03/29 09:19:18;;;;;;;11.05;6.47;;;8.10;99.90;;;;;;6307361;22;20026;-92
2023/03/29 09:21:58;;;;;;;12.32;6.22;;;8.20;99.90;;;;;;6278703;22;20414;-91
2023/03/29 09:24:29;;;;;;;10.63;5.85;;;8.20;99.90;;;;;;6306644;22;20089;-92
2023/03/29 09:27:11;;;;;;;11.35;6.82;;;8.20;99.90;;;;;;6281670;22;20047;-90
2023/03/29 09:30:11;;;;;;;12.55;6.50;;;8.30;99.90;;;;;;6280515;22;20098;-91
2023/03/29 09:32:51;;;;;;;11.05;6.28;;;8.40;99.90;;;;;;6257532;22;20011;-93
2023/03/29 09:35:25;;;;;;;16.10;7.07;;;8.40;99.90;;;;;;6308696;22;20019;-91
2023/03/29 09:37:53;;;;;;;14.52;6.50;;;8.50;99.90;;;;;;6279621;22;20023;-92
2023/03/29 09:40:28;;;;;;;13.98;6.95;;;8.50;99.90;;;;;;6282091;22;20073;-92
2023/03/29 09:42:56;;;;;;;16.30;7.32;;;8.60;99.90;;;;;;6309171;22;20016;-93
2023/03/29 09:45:22;;;;;;;11.23;6.85;;;8.70;99.90;;;;;;6309927;22;20018;-91
2023/03/29 09:48:11;;;;;;;12.85;7.07;;;8.70;99.90;;;;;;6282633;22;20094;-92
2023/03/29 09:50:40;;;;;;;12.77;6.95;;;8.80;99.90;;;;;;6308860;22;20095;-92
2023/03/29 09:53:07;;;;;;;12.70;7.05;;;8.80;99.90;;;;;;6282357;22;20090;-92
2023/03/29 09:55:36;;;;;;;13.93;7.35;;;8.80;99.90;;;;;;6282422;22;20455;-93
2023/03/29 09:58:15;;;;;;;13.63;8.18;;;8.90;99.90;;;;;;6281946;22;20007;-92
2023/03/29 10:00:41;;;;;;;16.17;7.97;;;9.00;99.90;;;;;;6310284;22;20015;-92
2023/03/29 10:03:07;;;;;;;13.98;8.40;;;9.00;99.90;;;;;;6282292;22;20014;-92
2023/03/29 10:05:38;;;;;;;12.45;7.13;;;9.00;99.90;;;;;;6281416;22;20015;-93
2023/03/29 10:08:17;;;;;;;17.50;8.40;;;9.10;99.90;;;;;;6282511;22;20019;-90
2023/03/29 10:10:42;;;;;;;11.68;7.60;;;9.10;99.90;;;;;;6326873;22;20474;-91
2023/03/29 10:13:19;;;;;;;14.82;7.93;;;9.20;99.90;;;;;;6283447;22;20050;-91
2023/03/29 10:16:02;;;;;;;14.38;8.25;;;9.20;99.90;;;;;;6309739;22;20111;-94
2023/03/29 10:18:30;;;;;;;13.65;7.80;;;9.20;99.90;;;;;;6308589;22;20011;-91
2023/03/29 10:21:02;;;;;;;12.15;8.30;;;9.30;99.90;;;;;;6281928;22;20050;-91
2023/03/29 10:23:33;;;;;;;14.32;8.25;;;9.30;99.90;;;;;;6289990;22;20031;-89
2023/03/29 10:26:04;;;;;;;14.02;8.60;;;9.40;99.90;;;;;;6280708;22;20045;-89
2023/03/29 10:28:31;;;;;;;16.10;8.82;;;9.40;99.90;;;;;;6314565;22;20019;-89
2023/03/29 10:30:59;;;;;;;13.85;8.15;;;9.50;99.90;;;;;;6308259;22;20051;-89
2023/03/29 10:33:30;;;;;;;14.93;9.27;;;9.50;99.90;;;;;;6280122;22;20047;-89
2023/03/29 10:35:58;;;;;;;15.85;9.15;;;9.60;99.90;;;;;;6309199;22;20033;-90
2023/03/29 10:38:27;;;;;;;14.90;8.70;;;9.70;99.90;;;;;;6280786;22;20045;-90
2023/03/29 10:40:54;;;;;;;16.60;9.30;;;9.70;99.90;;;;;;6280021;22;20021;-90
2023/03/29 10:43:37;;;;;;;15.85;9.65;;;9.80;99.90;;;;;;6308505;22;20022;-89
2023/03/29 10:46:27;;;;;;;15.15;9.43;;;9.90;99.90;;;;;;6280202;22;20068;-89
2023/03/29 10:49:04;;;;;;;17.20;10.38;;;9.90;99.90;;;;;;6281019;22;20019;-90
2023/03/29 10:51:31;;;;;;;19.27;10.00;;;10.00;99.90;;;;;;6308476;22;20011;-89
2023/03/29 10:54:01;;;;;;;19.17;11.30;;;10.00;99.90;;;;;;6280324;22;20328;-88
2023/03/29 10:56:41;;;;;;;16.13;9.82;;;10.10;99.90;;;;;;6307835;22;20019;-88
2023/03/29 10:59:21;;;;;;;15.80;10.35;;;10.20;99.90;;;;;;6278631;22;20013;-88
2023/03/29 11:02:06;;;;;;;15.38;9.77;;;10.30;99.90;;;;;;6279306;22;20045;-87
2023/03/29 11:04:58;;;;;;;16.80;10.43;;;10.40;99.90;;;;;;6279754;22;20019;-88
2023/03/29 11:07:31;;;;;;;17.67;10.52;;;10.40;99.90;;;;;;6278555;22;20019;-87
2023/03/29 11:09:56;;;;;;;;;;;10.50;99.90;;;;;;6280621;22;20125;-86
2023/03/29 11:12:51;;;;;;;14.20;9.15;;;10.50;99.90;;;;;;6279631;22;19951;-87
2023/03/29 11:16:03;;;;;;;13.70;8.93;;;10.60;99.90;;;;;;6306601;22;20023;-87
2023/03/29 11:19:03;;;;;;;15.52;9.55;;;10.70;99.90;;;;;;6157693;23;20465;-87
2023/03/29 11:21:44;;;;;;;15.73;8.68;;;10.80;99.90;;;;;;6156886;23;20013;-87
2023/03/29 11:24:45;;;;;;;17.13;9.60;;;10.90;99.90;;;;;;6283573;22;20019;-87
2023/03/29 11:27:46;;;;;;;12.90;9.20;;;11.00;99.90;;;;;;6307020;22;20019;-87
2023/03/29 11:30:41;;;;;;;12.55;8.23;;;11.10;99.90;;;;;;6181683;23;20013;-88
2023/03/29 11:33:41;;;;;;;15.10;8.85;;;11.10;99.90;;;;;;6250334;22;20020;-87
2023/03/29 11:36:35;;;;;;;13.55;8.23;;;11.20;99.90;;;;;;6306831;22;20011;-87
2023/03/29 11:39:10;;;;;;;12.98;8.75;;;11.20;99.90;;;;;;6279982;22;20521;-87
2023/03/29 11:41:43;;;;;;;15.90;9.10;;;11.30;99.90;;;;;;6280150;22;20015;-88
2023/03/29 11:44:23;;;;;;;11.70;8.57;;;11.40;99.90;;;;;;6278905;22;20020;-87
2023/03/29 11:46:52;;;;;;;14.98;8.60;;;11.50;99.90;;;;;;6307202;22;20443;-87
2023/03/29 11:49:24;;;;;;;14.73;8.80;;;11.60;99.90;;;;;;6279321;22;20019;-87
2023/03/29 11:51:59;;;;;;;13.40;8.30;;;11.60;99.90;;;;;;6307830;22;20019;-87
2023/03/29 11:54:53;;;;;;;14.45;7.85;;;11.60;99.90;;;;;;6306227;22;20086;-87
2023/03/29 11:57:27;;;;;;;;;;;11.70;99.90;;;;;;6285334;22;20038;-87
2023/03/29 12:00:05;;;;;;;15.10;8.50;;;11.70;99.90;;;;;;6279858;22;20254;-87
2023/03/29 12:02:40;;;;;;;11.73;7.45;;;11.80;99.90;;;;;;6279835;22;20042;-87
2023/03/29 12:05:22;;;;;;;12.73;7.45;;;11.90;99.90;;;;;;6279082;22;20051;-86
2023/03/29 12:07:58;;;;;;;12.73;7.68;;;12.00;99.90;;;;;;6279926;22;20019;-87
2023/03/29 12:10:32;;;;;;;13.85;8.00;;;12.00;99.90;;;;;;6306715;22;20011;-86
2023/03/29 12:13:06;;;;;;;14.82;8.55;;;12.10;99.90;;;;;;6307933;22;20068;-87
2023/03/29 12:15:42;;;;;;;;;;;12.20;99.90;;;;;;6280124;22;20026;-90
2023/03/29 12:18:32;;;;;;;11.55;7.80;;;12.20;99.90;;;;;;6279850;22;19922;-89
2023/03/29 12:21:13;;;;;;;13.68;7.80;;;12.30;99.90;;;;;;6280613;22;20047;-91
2023/03/29 12:23:42;;;;;;;13.80;7.72;;;12.40;99.80;;;;;;6279903;22;20098;-91
2023/03/29 12:26:10;;;;;;;14.00;8.13;;;12.50;99.80;;;;;;6279608;22;20007;-90
2023/03/29 12:28:36;;;;;;;13.48;7.28;;;12.50;99.40;;;;;;6280557;22;20466;-90
2023/03/29 12:31:24;;;;;;;12.70;7.22;;;12.60;99.10;;;;;;6307865;22;20015;-90
2023/03/29 12:34:29;;;;;;;12.20;7.20;;;12.60;98.90;;;;;;6279582;22;20019;-91
2023/03/29 12:37:23;;;;;;;11.73;6.93;;;12.60;98.70;;;;;;6302872;22;20016;-90
2023/03/29 12:39:50;;;;;;;11.40;6.53;;;12.70;98.90;;;;;;6279670;22;20019;-89
2023/03/29 12:42:19;;;;;;;11.98;6.75;;;12.70;98.80;;;;;;6307816;22;20019;-91
2023/03/29 12:44:49;;;;;;;11.18;6.78;;;12.70;98.70;;;;;;6280278;22;20015;-89
2023/03/29 12:47:22;;;;;;;11.30;6.47;;;12.80;98.50;;;;;;6306666;22;20012;-88
2023/03/29 12:49:56;;;;;;;11.02;6.63;;;12.80;98.40;;;;;;6307568;22;20015;-89
2023/03/29 12:52:33;;;;;;;11.18;6.80;;;12.80;98.50;;;;;;6279919;22;20023;-90
2023/03/29 12:55:01;;;;;;;10.32;6.72;;;12.80;98.30;;;;;;6279143;22;20408;-90
2023/03/29 12:57:36;;;;;;;10.48;6.22;;;12.80;98.30;;;;;;6307455;22;20381;-90
2023/03/29 13:00:17;;;;;;;10.15;6.55;;;12.90;98.30;;;;;;6279367;22;20026;-90
2023/03/29 13:02:44;;;;;;;10.50;6.60;;;12.80;98.10;;;;;;6280237;22;20015;-90
2023/03/29 13:05:28;;;;;;;11.80;6.60;;;12.80;98.20;;;;;;6279385;22;20022;-90
2023/03/29 13:07:54;;;;;;;11.05;6.40;;;12.90;98.10;;;;;;6306387;22;20021;-91
2023/03/29 13:10:37;;;;;;;11.73;6.80;;;12.90;98.10;;;;;;6279023;22;20011;-91
2023/03/29 13:13:28;;;;;;;11.55;6.82;;;12.90;97.80;;;;;;6279620;22;20066;-91